Stella Polaris — PEBD — position and weather

sailwx.info

Track history (hours):
 
Tides and Currents Weather Stations Pressure Air Temp Water Temp Dewpoint Dewpoint Depression Visibility Wind Speed Wind Dir Waves Ship Positions

Stella Polaris

Last reported at 2017-Jun-15 19:48 UTC. Time now 2017-Jun-23 03:31 UTC.
Position N 51°12' E 003°48'.

Length 117 m; draft 6.2 m.

Type: Ship (hazmat cat A). MMSI: 245911000.

Date/timePositionNaut miles runAvg speedWind from/ knotsBaromVisibWave heightAir tempDewpointWater temp
2017-Jun-15 19:48N 51°12' E 003°48'0 0.0
2017-Jun-15 18:12N 51°12' E 003°48'0 0.0
2017-Jun-15 17:24N 51°12' E 003°48'0 0.0
2017-Jun-15 16:36N 51°12' E 003°48'0 0.0
2017-Jun-15 16:12N 51°12' E 003°48'0 0.0
2017-Jun-15 15:30N 51°12' E 003°48'0 0.0
2017-Jun-15 14:36N 51°12' E 003°48'0 0.0
2017-Jun-15 14:30N 51°12' E 003°48'0 0.0
2017-Jun-15 12:18N 51°12' E 003°48'0 0.0
2017-Jun-15 11:54N 51°12' E 003°48'0 0.0
2017-Jun-15 09:54N 51°12' E 003°48'0 0.0
2017-Jun-15 09:24N 51°12' E 003°48'0 0.0
2017-Jun-15 08:42N 51°12' E 003°48'0 0.0
2017-Jun-15 08:18N 51°12' E 003°48'0 0.0
2017-Jun-15 08:00N 51°12' E 003°48'0 0.0
2017-Jun-15 07:15N 51°12' E 003°48'0 0.0
2017-Jun-15 06:48N 51°12' E 003°48'0 0.0
2017-Jun-15 06:18N 51°12' E 003°48'0 0.0
2017-Jun-15 05:54N 51°12' E 003°48'0 0.0
2017-Jun-15 05:18N 51°12' E 003°48'0 0.0
2017-Jun-15 05:00N 51°12' E 003°48'0 0.0
2017-Jun-15 04:30N 51°12' E 003°48'0 0.0
2017-Jun-15 03:54N 51°12' E 003°48'0 0.0
2017-Jun-15 03:18N 51°12' E 003°48'0 0.0
2017-Jun-15 03:00N 51°12' E 003°48'0 0.0
2017-Jun-15 02:30N 51°12' E 003°48'0 0.0
2017-Jun-15 02:00N 51°12' E 003°48'0 0.0
2017-Jun-15 01:18N 51°12' E 003°48'0 0.0
2017-Jun-15 01:00N 51°12' E 003°48'0 0.0
2017-Jun-15 00:30N 51°12' E 003°48'0 0.0
2017-Jun-14 23:00N 51°12' E 003°48'0 0.0
2017-Jun-14 22:12N 51°12' E 003°48'0 0.0
2017-Jun-14 21:54N 51°12' E 003°48'0 0.0
2017-Jun-14 21:30N 51°12' E 003°48'0 0.0
2017-Jun-14 20:48N 51°12' E 003°48'0 0.0
2017-Jun-14 20:30N 51°12' E 003°48'0 0.0
2017-Jun-14 20:00N 51°12' E 003°48'0 0.0
2017-Jun-14 19:30N 51°12' E 003°48'0 0.0
2017-Jun-14 19:00N 51°12' E 003°48'0 0.0
2017-Jun-14 18:30N 51°12' E 003°48'0 0.0
2017-Jun-14 17:16N 51°12' E 003°48'0 0.0
2017-Jun-14 16:52N 51°12' E 003°48'0 0.0
2017-Jun-14 15:28N 51°12' E 003°48'0 0.0
2017-Jun-14 14:58N 51°12' E 003°48'0 0.0
2017-Jun-14 11:58N 51°12' E 003°48'0 0.1
2017-Jun-14 11:30N 51°12' E 003°48'2 4.7
2017-Jun-14 11:00N 51°15' E 003°49'3 6.9
2017-Jun-14 10:30N 51°18' E 003°50'2 3.5
2017-Jun-14 10:00N 51°20' E 003°49'0 0.0
2017-Jun-14 09:30N 51°20' E 003°49'1 1.0
2017-Jun-14 09:00N 51°20' E 003°49'1 2.9
2017-Jun-14 08:30N 51°21' E 003°47'5 9.6
2017-Jun-14 08:00N 51°25' E 003°42'5 9.7
2017-Jun-14 07:30N 51°26' E 003°35'4 8.6
2017-Jun-14 07:00N 51°29' E 003°30'611.4
2017-Jun-14 06:30N 51°34' E 003°25'612.9
2017-Jun-14 06:00N 51°39' E 003°20'5 9.8
2017-Jun-14 05:30N 51°44' E 003°17'5 7.5
2017-Jun-14 04:52N 51°48' E 003°19'0 0.0
2017-Jun-14 04:28N 51°48' E 003°19'0 0.0
2017-Jun-14 03:58N 51°48' E 003°19'0 0.0
2017-Jun-14 03:25N 51°48' E 003°19'0 0.0
2017-Jun-14 02:58N 51°48' E 003°19'0 0.0
2017-Jun-14 02:29N 51°48' E 003°19'0 0.2
2017-Jun-14 01:59N 51°48' E 003°19'0 0.1
2017-Jun-14 01:19N 51°48' E 003°19'0 0.0
2017-Jun-14 00:54N 51°48' E 003°19'1 2.1
2017-Jun-14 00:30N 51°49' E 003°18'612.5
2017-Jun-13 23:59N 51°55' E 003°19'715.0
2017-Jun-13 23:29N 52°02' E 003°21'815.2
2017-Jun-13 22:58N 52°10' E 003°23'4714.2
2017-Jun-13 19:37N 52°57' E 003°36'313.0
2017-Jun-13 19:23N 52°60' E 003°36'613.1
2017-Jun-13 18:58N 53°05' E 003°34'37012.4
2017-Jun-12 13:16N 57°49' E 010°32'511.5
2017-Jun-12 12:51N 57°49' E 010°41'411.3
2017-Jun-12 12:30N 57°47' E 010°48'612.9
2017-Jun-12 12:00N 57°43' E 010°57'713.5
2017-Jun-12 11:29N 57°38' E 011°06'713.7
2017-Jun-12 11:00N 57°34' E 011°15'713.3
2017-Jun-12 10:30N 57°29' E 011°24'713.3
2017-Jun-12 10:00N 57°23' E 011°29'713.9
2017-Jun-12 09:30N 57°16' E 011°34'713.4
2017-Jun-12 09:00N 57°10' E 011°38'713.4
2017-Jun-12 08:30N 57°04' E 011°42'5613.3
2017-Jun-12 04:19N 56°12' E 012°20'413.9
2017-Jun-12 04:00N 56°10' E 012°26'714.5
2017-Jun-12 03:31N 56°05' E 012°36'714.1
2017-Jun-12 03:00N 55°59' E 012°42'714.3
2017-Jun-12 02:31N 55°52' E 012°45'714.0
2017-Jun-12 02:00N 55°45' E 012°50'713.9
2017-Jun-12 01:30N 55°39' E 012°56'612.1
2017-Jun-12 01:01N 55°35' E 012°50'611.8
2017-Jun-12 00:31N 55°30' E 012°43'713.6
2017-Jun-12 00:00N 55°23' E 012°41'611.8
2017-Jun-11 23:30N 55°18' E 012°45'713.6
2017-Jun-11 23:01N 55°16' E 012°56'713.8
2017-Jun-11 22:30N 55°15' E 013°08'1814.1
2017-Jun-11 21:12N 55°14' E 013°40'314.1
2017-Jun-11 21:00N 55°14' E 013°45'713.9
2017-Jun-11 20:31N 55°14' E 013°57'713.9
2017-Jun-11 20:00N 55°14' E 014°09'613.0
2017-Jun-11 19:30N 55°16' E 014°20'714.0
2017-Jun-11 19:00N 55°21' E 014°28'713.8
2017-Jun-11 18:30N 55°27' E 014°36'713.7
2017-Jun-11 18:00N 55°30' E 014°47'713.6
2017-Jun-11 17:30N 55°33' E 014°57'813.8
2017-Jun-11 16:58N 55°37' E 015°09'26813.8
2017-Jun-10 21:28N 58°44' E 021°04'814.1
2017-Jun-10 20:53N 58°51' E 021°13'514.1
2017-Jun-10 20:30N 58°55' E 021°19'714.6
2017-Jun-10 20:00N 59°01' E 021°28'815.3
2017-Jun-10 19:31N 59°07' E 021°36'714.0
2017-Jun-10 19:00N 59°12' E 021°47'713.1
2017-Jun-10 18:31N 59°16' E 021°57'714.2
2017-Jun-10 18:00N 59°20' E 022°08'714.1
2017-Jun-10 17:30N 59°25' E 022°19'714.2
2017-Jun-10 17:00N 59°29' E 022°30'714.1
2017-Jun-10 16:31N 59°32' E 022°42'714.5
2017-Jun-10 16:00N 59°34' E 022°56'714.0
2017-Jun-10 15:30N 59°36' E 023°09'714.2
2017-Jun-10 15:00N 59°38' E 023°23'1414.4
2017-Jun-10 14:00N 59°42' E 023°50'714.2
2017-Jun-10 13:30N 59°44' E 024°04'714.2
2017-Jun-10 13:00N 59°46' E 024°17'714.0
2017-Jun-10 12:31N 59°48' E 024°30'714.0
2017-Jun-10 12:00N 59°49' E 024°44'713.9
2017-Jun-10 11:30N 59°51' E 024°58'713.8
2017-Jun-10 11:00N 59°52' E 025°11'713.9
2017-Jun-10 10:30N 59°53' E 025°25'714.0
2017-Jun-10 10:01N 59°55' E 025°38'714.1
2017-Jun-10 09:30N 59°56' E 025°52'713.7
2017-Jun-10 09:00N 59°58' E 026°05'714.1
2017-Jun-10 08:30N 60°04' E 026°13'714.0
2017-Jun-10 08:00N 60°10' E 026°21'713.6
2017-Jun-10 07:31N 60°16' E 026°28'713.9
2017-Jun-10 07:00N 60°20' E 026°38'714.0
2017-Jun-10 06:31N 60°24' E 026°51'3 5.9
2017-Jun-10 06:00N 60°26' E 026°55'0 0.0
2017-Jun-10 05:30N 60°26' E 026°55'0 0.0
2017-Jun-10 05:00N 60°26' E 026°55'0 0.0
2017-Jun-10 04:30N 60°26' E 026°55'0 0.0
2017-Jun-10 04:00N 60°26' E 026°55'0 0.0
2017-Jun-10 03:27N 60°26' E 026°55'0 0.0
2017-Jun-10 03:00N 60°26' E 026°55'0 0.0
2017-Jun-10 02:30N 60°26' E 026°55'0 0.0
2017-Jun-10 02:00N 60°26' E 026°55'0 0.0
2017-Jun-10 01:30N 60°26' E 026°55'0 0.0
2017-Jun-10 01:00N 60°26' E 026°55'0 0.0
2017-Jun-10 00:30N 60°26' E 026°55'0 0.0
2017-Jun-10 00:00N 60°26' E 026°55'0 0.0
2017-Jun-09 23:30N 60°26' E 026°55'0 0.0
2017-Jun-09 23:00N 60°26' E 026°55'0 0.0
2017-Jun-09 22:30N 60°26' E 026°55'0 0.0
2017-Jun-09 22:00N 60°26' E 026°55'0 0.0
2017-Jun-09 21:30N 60°26' E 026°55'0 0.0
2017-Jun-09 21:00N 60°26' E 026°55'0 0.0
2017-Jun-09 20:30N 60°26' E 026°55'0 0.0
2017-Jun-09 20:00N 60°26' E 026°55'0 0.0
2017-Jun-09 19:30N 60°26' E 026°55'0 0.0
2017-Jun-09 19:00N 60°26' E 026°55'0 0.0
2017-Jun-09 18:30N 60°26' E 026°55'0 0.0
2017-Jun-09 18:00N 60°26' E 026°55'0 0.0
2017-Jun-09 17:30N 60°26' E 026°55'0 0.0
2017-Jun-09 17:00N 60°26' E 026°55'0 0.0
2017-Jun-09 16:30N 60°26' E 026°55'0 0.0
2017-Jun-09 16:00N 60°26' E 026°55'0 0.0
2017-Jun-09 15:30N 60°26' E 026°55'0 0.0
2017-Jun-09 15:00N 60°26' E 026°55'0 0.0
2017-Jun-09 14:30N 60°26' E 026°55'0 0.0
2017-Jun-09 13:24N 60°26' E 026°55'0 0.0
2017-Jun-09 13:00N 60°26' E 026°55'0 0.0
2017-Jun-09 12:30N 60°26' E 026°55'0 0.0
2017-Jun-09 12:00N 60°26' E 026°55'0 0.0
2017-Jun-09 11:30N 60°26' E 026°55'0 0.0
2017-Jun-09 11:00N 60°26' E 026°55'0 0.0
2017-Jun-09 10:30N 60°26' E 026°55'0 0.0
2017-Jun-09 10:00N 60°26' E 026°55'0 0.0
2017-Jun-09 09:27N 60°26' E 026°55'0 0.0
2017-Jun-09 09:00N 60°26' E 026°55'0 0.0
2017-Jun-09 08:30N 60°26' E 026°55'0 0.0
2017-Jun-09 08:00N 60°26' E 026°55'0 0.0
2017-Jun-09 07:30N 60°26' E 026°55'0 0.0
2017-Jun-09 07:00N 60°26' E 026°55'0 0.0
2017-Jun-09 06:30N 60°26' E 026°55'0 0.0
2017-Jun-09 05:58N 60°26' E 026°55'0 0.0
2017-Jun-09 05:28N 60°26' E 026°55'0 0.0
2017-Jun-09 04:58N 60°26' E 026°55'0 0.0
2017-Jun-09 04:28N 60°26' E 026°55'0 0.0
2017-Jun-09 03:55N 60°26' E 026°55'0 0.0
2017-Jun-09 03:28N 60°26' E 026°55'0 0.0
2017-Jun-09 02:58N 60°26' E 026°55'0 0.0
2017-Jun-09 02:25N 60°26' E 026°55'0 0.0
2017-Jun-09 01:58N 60°26' E 026°55'0 0.0
2017-Jun-09 01:28N 60°26' E 026°55'0 0.0
2017-Jun-09 00:58N 60°26' E 026°55'0 0.0
2017-Jun-09 00:28N 60°26' E 026°55'0 0.0
2017-Jun-08 23:58N 60°26' E 026°55'0 0.0
2017-Jun-08 23:28N 60°26' E 026°55'0 0.0
2017-Jun-08 22:58N 60°26' E 026°55'0 0.0
2017-Jun-08 22:28N 60°26' E 026°55'0 0.0
2017-Jun-08 21:55N 60°26' E 026°55'0 0.0
2017-Jun-08 21:28N 60°26' E 026°55'0 0.0
2017-Jun-08 20:55N 60°26' E 026°55'0 0.0
2017-Jun-08 20:28N 60°26' E 026°55'0 0.0
2017-Jun-08 19:59N 60°26' E 026°55'0 0.0
2017-Jun-08 19:28N 60°26' E 026°55'0 0.0
2017-Jun-08 18:58N 60°26' E 026°55'0 0.0
2017-Jun-08 18:19N 60°26' E 026°55'0 0.0
2017-Jun-08 17:58N 60°26' E 026°55'0 0.0
2017-Jun-08 17:28N 60°26' E 026°55'0 0.0
2017-Jun-08 16:59N 60°26' E 026°55'0 0.0
2017-Jun-08 16:29N 60°26' E 026°55'0 0.0
2017-Jun-08 15:59N 60°26' E 026°55'0 0.0
2017-Jun-08 15:29N 60°26' E 026°55'0 0.0
2017-Jun-08 14:59N 60°26' E 026°55'0 0.0
2017-Jun-08 14:29N 60°26' E 026°55'0 0.0
2017-Jun-08 13:29N 60°26' E 026°55'0 0.0
2017-Jun-08 12:59N 60°26' E 026°55'0 0.0
2017-Jun-08 12:29N 60°26' E 026°55'0 0.7
2017-Jun-08 12:00N 60°25' E 026°56'5 9.5
2017-Jun-08 11:30N 60°23' E 026°47'714.0
2017-Jun-08 11:00N 60°19' E 026°36'714.4
2017-Jun-08 10:31N 60°14' E 026°25'713.4
2017-Jun-08 10:00N 60°08' E 026°20'714.5
2017-Jun-08 09:30N 60°01' E 026°14'713.7
2017-Jun-08 09:00N 59°55' E 026°07'714.5
2017-Jun-08 08:31N 59°53' E 025°54'714.4
2017-Jun-08 08:00N 59°51' E 025°40'714.5
2017-Jun-08 07:30N 59°50' E 025°26'714.3
2017-Jun-08 07:01N 59°48' E 025°12'714.4
2017-Jun-08 06:30N 59°47' E 024°58'714.3
2017-Jun-08 06:00N 59°45' E 024°44'714.4
2017-Jun-08 05:30N 59°44' E 024°30'714.2
2017-Jun-08 05:00N 59°42' E 024°16'714.3
2017-Jun-08 04:30N 59°39' E 024°03'714.0
2017-Jun-08 04:00N 59°37' E 023°49'713.9
2017-Jun-08 03:30N 59°35' E 023°36'713.9
2017-Jun-08 03:00N 59°33' E 023°23'714.0
2017-Jun-08 02:30N 59°31' E 023°10'714.3
2017-Jun-08 02:00N 59°28' E 022°57'714.3
2017-Jun-08 01:31N 59°26' E 022°44'714.0
2017-Jun-08 01:00N 59°23' E 022°31'714.3
2017-Jun-08 00:31N 59°18' E 022°20'714.5
2017-Jun-08 00:01N 59°14' E 022°09'814.4
2017-Jun-07 23:27N 59°09' E 021°57'614.2
2017-Jun-07 23:01N 59°05' E 021°47'814.1
2017-Jun-07 22:26N 58°59' E 021°38'914.1
2017-Jun-07 21:46N 58°51' E 021°27'614.3
2017-Jun-07 21:22N 58°47' E 021°20'514.4
2017-Jun-07 21:01N 58°43' E 021°14'27014.2
2017-Jun-07 02:02N 55°35' E 015°16'114.3
2017-Jun-07 01:57N 55°34' E 015°14'614.0
2017-Jun-07 01:30N 55°31' E 015°05'714.0
2017-Jun-07 01:00N 55°28' E 014°54'714.3
2017-Jun-07 00:31N 55°25' E 014°43'714.0
2017-Jun-07 00:00N 55°20' E 014°34'714.2
2017-Jun-06 23:29N 55°14' E 014°25'714.2
2017-Jun-06 23:00N 55°10' E 014°16'814.0
2017-Jun-06 22:28N 55°10' E 014°03'613.9
2017-Jun-06 22:00N 55°11' E 013°52'2614.2
2017-Jun-06 20:10N 55°12' E 013°07'214.3
2017-Jun-06 20:00N 55°12' E 013°02'714.1
2017-Jun-06 19:30N 55°15' E 012°51'713.7
2017-Jun-06 19:00N 55°18' E 012°40'612.2
2017-Jun-06 18:30N 55°24' E 012°40'713.3
2017-Jun-06 18:00N 55°30' E 012°44'612.1
2017-Jun-06 17:30N 55°35' E 012°50'611.9
2017-Jun-06 17:00N 55°39' E 012°58'2 3.0
2017-Jun-06 16:16N 55°38' E 013°01'0 0.0
2017-Jun-06 15:55N 55°38' E 013°01'0 0.0
2017-Jun-06 15:28N 55°38' E 013°01'0 0.0
2017-Jun-06 14:55N 55°38' E 013°01'0 0.0
2017-Jun-06 13:55N 55°38' E 013°01'0 0.0
2017-Jun-06 13:22N 55°38' E 013°01'0 0.0
2017-Jun-06 12:43N 55°38' E 013°01'0 0.0
2017-Jun-06 12:25N 55°38' E 013°01'0 0.0
2017-Jun-06 11:49N 55°38' E 013°01'0 0.0
2017-Jun-06 11:28N 55°38' E 013°01'0 0.0
2017-Jun-06 10:55N 55°38' E 013°01'0 0.0
2017-Jun-06 09:46N 55°38' E 013°01'0 0.0
2017-Jun-06 09:10N 55°38' E 013°01'0 0.0
2017-Jun-06 08:55N 55°38' E 013°01'0 0.0
2017-Jun-06 08:25N 55°38' E 013°01'0 0.0
2017-Jun-06 07:20N 55°38' E 013°01'0 0.1
2017-Jun-06 07:00N 55°38' E 013°01'3 5.3
2017-Jun-06 06:30N 55°40' E 012°58'612.5
2017-Jun-06 06:00N 55°45' E 012°51'713.4
2017-Jun-06 05:30N 55°51' E 012°45'713.0
2017-Jun-06 05:00N 55°57' E 012°43'713.2
2017-Jun-06 04:30N 56°03' E 012°39'612.5
2017-Jun-06 04:00N 56°07' E 012°30'5 9.6
2017-Jun-06 03:30N 56°10' E 012°23'1311.0
2017-Jun-06 02:19N 56°17' E 012°04'4811.3
2017-Jun-05 22:05N 57°04' E 011°40'111.8
2017-Jun-05 21:59N 57°05' E 011°39'611.3
2017-Jun-05 21:29N 57°10' E 011°36'611.4
2017-Jun-05 21:00N 57°15' E 011°32'612.1
2017-Jun-05 20:30N 57°21' E 011°28'612.0
2017-Jun-05 20:00N 57°26' E 011°25'  
Track history (hours):
 
Tides and Currents Weather Stations Pressure Air Temp Water Temp Dewpoint Dewpoint Depression Visibility Wind Speed Wind Dir Waves Ship Positions

Stella Polaris

Last reported at 2017-Jun-15 19:48 UTC. Time now 2017-Jun-23 03:31 UTC.
Position N 51°12' E 003°48'.

Length 117 m; draft 6.2 m.

Type: Ship (hazmat cat A). MMSI: 245911000.

Date/timePositionNaut miles runAvg speedWind from/ knotsBaromVisibWave heightAir tempDewpointWater temp
2017-Jun-15 19:48N 51°12' E 003°48'0 0.0
2017-Jun-15 18:12N 51°12' E 003°48'0 0.0
2017-Jun-15 17:24N 51°12' E 003°48'0 0.0
2017-Jun-15 16:36N 51°12' E 003°48'0 0.0
2017-Jun-15 16:12N 51°12' E 003°48'0 0.0
2017-Jun-15 15:30N 51°12' E 003°48'0 0.0
2017-Jun-15 14:36N 51°12' E 003°48'0 0.0
2017-Jun-15 14:30N 51°12' E 003°48'0 0.0
2017-Jun-15 12:18N 51°12' E 003°48'0 0.0
2017-Jun-15 11:54N 51°12' E 003°48'0 0.0
2017-Jun-15 09:54N 51°12' E 003°48'0 0.0
2017-Jun-15 09:24N 51°12' E 003°48'0 0.0
2017-Jun-15 08:42N 51°12' E 003°48'0 0.0
2017-Jun-15 08:18N 51°12' E 003°48'0 0.0
2017-Jun-15 08:00N 51°12' E 003°48'0 0.0
2017-Jun-15 07:15N 51°12' E 003°48'0 0.0
2017-Jun-15 06:48N 51°12' E 003°48'0 0.0
2017-Jun-15 06:18N 51°12' E 003°48'0 0.0
2017-Jun-15 05:54N 51°12' E 003°48'0 0.0
2017-Jun-15 05:18N 51°12' E 003°48'0 0.0
2017-Jun-15 05:00N 51°12' E 003°48'0 0.0
2017-Jun-15 04:30N 51°12' E 003°48'0 0.0
2017-Jun-15 03:54N 51°12' E 003°48'0 0.0
2017-Jun-15 03:18N 51°12' E 003°48'0 0.0
2017-Jun-15 03:00N 51°12' E 003°48'0 0.0
2017-Jun-15 02:30N 51°12' E 003°48'0 0.0
2017-Jun-15 02:00N 51°12' E 003°48'0 0.0
2017-Jun-15 01:18N 51°12' E 003°48'0 0.0
2017-Jun-15 01:00N 51°12' E 003°48'0 0.0
2017-Jun-15 00:30N 51°12' E 003°48'0 0.0
2017-Jun-14 23:00N 51°12' E 003°48'0 0.0
2017-Jun-14 22:12N 51°12' E 003°48'0 0.0
2017-Jun-14 21:54N 51°12' E 003°48'0 0.0
2017-Jun-14 21:30N 51°12' E 003°48'0 0.0
2017-Jun-14 20:48N 51°12' E 003°48'0 0.0
2017-Jun-14 20:30N 51°12' E 003°48'0 0.0
2017-Jun-14 20:00N 51°12' E 003°48'0 0.0
2017-Jun-14 19:30N 51°12' E 003°48'0 0.0
2017-Jun-14 19:00N 51°12' E 003°48'0 0.0
2017-Jun-14 18:30N 51°12' E 003°48'0 0.0
2017-Jun-14 17:16N 51°12' E 003°48'0 0.0
2017-Jun-14 16:52N 51°12' E 003°48'0 0.0
2017-Jun-14 15:28N 51°12' E 003°48'0 0.0
2017-Jun-14 14:58N 51°12' E 003°48'0 0.0
2017-Jun-14 11:58N 51°12' E 003°48'0 0.1
2017-Jun-14 11:30N 51°12' E 003°48'2 4.7
2017-Jun-14 11:00N 51°15' E 003°49'3 6.9
2017-Jun-14 10:30N 51°18' E 003°50'2 3.5
2017-Jun-14 10:00N 51°20' E 003°49'0 0.0
2017-Jun-14 09:30N 51°20' E 003°49'1 1.0
2017-Jun-14 09:00N 51°20' E 003°49'1 2.9
2017-Jun-14 08:30N 51°21' E 003°47'5 9.6
2017-Jun-14 08:00N 51°25' E 003°42'5 9.7
2017-Jun-14 07:30N 51°26' E 003°35'4 8.6
2017-Jun-14 07:00N 51°29' E 003°30'611.4
2017-Jun-14 06:30N 51°34' E 003°25'612.9
2017-Jun-14 06:00N 51°39' E 003°20'5 9.8
2017-Jun-14 05:30N 51°44' E 003°17'5 7.5
2017-Jun-14 04:52N 51°48' E 003°19'0 0.0
2017-Jun-14 04:28N 51°48' E 003°19'0 0.0
2017-Jun-14 03:58N 51°48' E 003°19'0 0.0
2017-Jun-14 03:25N 51°48' E 003°19'0 0.0
2017-Jun-14 02:58N 51°48' E 003°19'0 0.0
2017-Jun-14 02:29N 51°48' E 003°19'0 0.2
2017-Jun-14 01:59N 51°48' E 003°19'0 0.1
2017-Jun-14 01:19N 51°48' E 003°19'0 0.0
2017-Jun-14 00:54N 51°48' E 003°19'1 2.1
2017-Jun-14 00:30N 51°49' E 003°18'612.5
2017-Jun-13 23:59N 51°55' E 003°19'715.0
2017-Jun-13 23:29N 52°02' E 003°21'815.2
2017-Jun-13 22:58N 52°10' E 003°23'4714.2
2017-Jun-13 19:37N 52°57' E 003°36'313.0
2017-Jun-13 19:23N 52°60' E 003°36'613.1
2017-Jun-13 18:58N 53°05' E 003°34'37012.4
2017-Jun-12 13:16N 57°49' E 010°32'511.5
2017-Jun-12 12:51N 57°49' E 010°41'411.3
2017-Jun-12 12:30N 57°47' E 010°48'612.9
2017-Jun-12 12:00N 57°43' E 010°57'713.5
2017-Jun-12 11:29N 57°38' E 011°06'713.7
2017-Jun-12 11:00N 57°34' E 011°15'713.3
2017-Jun-12 10:30N 57°29' E 011°24'713.3
2017-Jun-12 10:00N 57°23' E 011°29'713.9
2017-Jun-12 09:30N 57°16' E 011°34'713.4
2017-Jun-12 09:00N 57°10' E 011°38'713.4
2017-Jun-12 08:30N 57°04' E 011°42'5613.3
2017-Jun-12 04:19N 56°12' E 012°20'413.9
2017-Jun-12 04:00N 56°10' E 012°26'714.5
2017-Jun-12 03:31N 56°05' E 012°36'714.1
2017-Jun-12 03:00N 55°59' E 012°42'714.3
2017-Jun-12 02:31N 55°52' E 012°45'714.0
2017-Jun-12 02:00N 55°45' E 012°50'713.9
2017-Jun-12 01:30N 55°39' E 012°56'612.1
2017-Jun-12 01:01N 55°35' E 012°50'611.8
2017-Jun-12 00:31N 55°30' E 012°43'713.6
2017-Jun-12 00:00N 55°23' E 012°41'611.8
2017-Jun-11 23:30N 55°18' E 012°45'713.6
2017-Jun-11 23:01N 55°16' E 012°56'713.8
2017-Jun-11 22:30N 55°15' E 013°08'1814.1
2017-Jun-11 21:12N 55°14' E 013°40'314.1
2017-Jun-11 21:00N 55°14' E 013°45'713.9
2017-Jun-11 20:31N 55°14' E 013°57'713.9
2017-Jun-11 20:00N 55°14' E 014°09'613.0
2017-Jun-11 19:30N 55°16' E 014°20'714.0
2017-Jun-11 19:00N 55°21' E 014°28'713.8
2017-Jun-11 18:30N 55°27' E 014°36'713.7
2017-Jun-11 18:00N 55°30' E 014°47'713.6
2017-Jun-11 17:30N 55°33' E 014°57'813.8
2017-Jun-11 16:58N 55°37' E 015°09'26813.8
2017-Jun-10 21:28N 58°44' E 021°04'814.1
2017-Jun-10 20:53N 58°51' E 021°13'514.1
2017-Jun-10 20:30N 58°55' E 021°19'714.6
2017-Jun-10 20:00N 59°01' E 021°28'815.3
2017-Jun-10 19:31N 59°07' E 021°36'714.0
2017-Jun-10 19:00N 59°12' E 021°47'713.1
2017-Jun-10 18:31N 59°16' E 021°57'714.2
2017-Jun-10 18:00N 59°20' E 022°08'714.1
2017-Jun-10 17:30N 59°25' E 022°19'714.2
2017-Jun-10 17:00N 59°29' E 022°30'714.1
2017-Jun-10 16:31N 59°32' E 022°42'714.5
2017-Jun-10 16:00N 59°34' E 022°56'714.0
2017-Jun-10 15:30N 59°36' E 023°09'714.2
2017-Jun-10 15:00N 59°38' E 023°23'1414.4
2017-Jun-10 14:00N 59°42' E 023°50'714.2
2017-Jun-10 13:30N 59°44' E 024°04'714.2
2017-Jun-10 13:00N 59°46' E 024°17'714.0
2017-Jun-10 12:31N 59°48' E 024°30'714.0
2017-Jun-10 12:00N 59°49' E 024°44'713.9
2017-Jun-10 11:30N 59°51' E 024°58'713.8
2017-Jun-10 11:00N 59°52' E 025°11'713.9
2017-Jun-10 10:30N 59°53' E 025°25'714.0
2017-Jun-10 10:01N 59°55' E 025°38'714.1
2017-Jun-10 09:30N 59°56' E 025°52'713.7
2017-Jun-10 09:00N 59°58' E 026°05'714.1
2017-Jun-10 08:30N 60°04' E 026°13'714.0
2017-Jun-10 08:00N 60°10' E 026°21'713.6
2017-Jun-10 07:31N 60°16' E 026°28'713.9
2017-Jun-10 07:00N 60°20' E 026°38'714.0
2017-Jun-10 06:31N 60°24' E 026°51'3 5.9
2017-Jun-10 06:00N 60°26' E 026°55'0 0.0
2017-Jun-10 05:30N 60°26' E 026°55'0 0.0
2017-Jun-10 05:00N 60°26' E 026°55'0 0.0
2017-Jun-10 04:30N 60°26' E 026°55'0 0.0
2017-Jun-10 04:00N 60°26' E 026°55'0 0.0
2017-Jun-10 03:27N 60°26' E 026°55'0 0.0
2017-Jun-10 03:00N 60°26' E 026°55'0 0.0
2017-Jun-10 02:30N 60°26' E 026°55'0 0.0
2017-Jun-10 02:00N 60°26' E 026°55'0 0.0
2017-Jun-10 01:30N 60°26' E 026°55'0 0.0
2017-Jun-10 01:00N 60°26' E 026°55'0 0.0
2017-Jun-10 00:30N 60°26' E 026°55'0 0.0
2017-Jun-10 00:00N 60°26' E 026°55'0 0.0
2017-Jun-09 23:30N 60°26' E 026°55'0 0.0
2017-Jun-09 23:00N 60°26' E 026°55'0 0.0
2017-Jun-09 22:30N 60°26' E 026°55'0 0.0
2017-Jun-09 22:00N 60°26' E 026°55'0 0.0
2017-Jun-09 21:30N 60°26' E 026°55'0 0.0
2017-Jun-09 21:00N 60°26' E 026°55'0 0.0
2017-Jun-09 20:30N 60°26' E 026°55'0 0.0
2017-Jun-09 20:00N 60°26' E 026°55'0 0.0
2017-Jun-09 19:30N 60°26' E 026°55'0 0.0
2017-Jun-09 19:00N 60°26' E 026°55'0 0.0
2017-Jun-09 18:30N 60°26' E 026°55'0 0.0
2017-Jun-09 18:00N 60°26' E 026°55'0 0.0
2017-Jun-09 17:30N 60°26' E 026°55'0 0.0
2017-Jun-09 17:00N 60°26' E 026°55'0 0.0
2017-Jun-09 16:30N 60°26' E 026°55'0 0.0
2017-Jun-09 16:00N 60°26' E 026°55'0 0.0
2017-Jun-09 15:30N 60°26' E 026°55'0 0.0
2017-Jun-09 15:00N 60°26' E 026°55'0 0.0
2017-Jun-09 14:30N 60°26' E 026°55'0 0.0
2017-Jun-09 13:24N 60°26' E 026°55'0 0.0
2017-Jun-09 13:00N 60°26' E 026°55'0 0.0
2017-Jun-09 12:30N 60°26' E 026°55'0 0.0
2017-Jun-09 12:00N 60°26' E 026°55'0 0.0
2017-Jun-09 11:30N 60°26' E 026°55'0 0.0
2017-Jun-09 11:00N 60°26' E 026°55'0 0.0
2017-Jun-09 10:30N 60°26' E 026°55'0 0.0
2017-Jun-09 10:00N 60°26' E 026°55'0 0.0
2017-Jun-09 09:27N 60°26' E 026°55'0 0.0
2017-Jun-09 09:00N 60°26' E 026°55'0 0.0
2017-Jun-09 08:30N 60°26' E 026°55'0 0.0
2017-Jun-09 08:00N 60°26' E 026°55'0 0.0
2017-Jun-09 07:30N 60°26' E 026°55'0 0.0
2017-Jun-09 07:00N 60°26' E 026°55'0 0.0
2017-Jun-09 06:30N 60°26' E 026°55'0 0.0
2017-Jun-09 05:58N 60°26' E 026°55'0 0.0
2017-Jun-09 05:28N 60°26' E 026°55'0 0.0
2017-Jun-09 04:58N 60°26' E 026°55'0 0.0
2017-Jun-09 04:28N 60°26' E 026°55'0 0.0
2017-Jun-09 03:55N 60°26' E 026°55'0 0.0
2017-Jun-09 03:28N 60°26' E 026°55'0 0.0
2017-Jun-09 02:58N 60°26' E 026°55'0 0.0
2017-Jun-09 02:25N 60°26' E 026°55'0 0.0
2017-Jun-09 01:58N 60°26' E 026°55'0 0.0
2017-Jun-09 01:28N 60°26' E 026°55'0 0.0
2017-Jun-09 00:58N 60°26' E 026°55'0 0.0
2017-Jun-09 00:28N 60°26' E 026°55'0 0.0
2017-Jun-08 23:58N 60°26' E 026°55'0 0.0
2017-Jun-08 23:28N 60°26' E 026°55'0 0.0
2017-Jun-08 22:58N 60°26' E 026°55'0 0.0
2017-Jun-08 22:28N 60°26' E 026°55'0 0.0
2017-Jun-08 21:55N 60°26' E 026°55'0 0.0
2017-Jun-08 21:28N 60°26' E 026°55'0 0.0
2017-Jun-08 20:55N 60°26' E 026°55'0 0.0
2017-Jun-08 20:28N 60°26' E 026°55'0 0.0
2017-Jun-08 19:59N 60°26' E 026°55'0 0.0
2017-Jun-08 19:28N 60°26' E 026°55'0 0.0
2017-Jun-08 18:58N 60°26' E 026°55'0 0.0
2017-Jun-08 18:19N 60°26' E 026°55'0 0.0
2017-Jun-08 17:58N 60°26' E 026°55'0 0.0
2017-Jun-08 17:28N 60°26' E 026°55'0 0.0
2017-Jun-08 16:59N 60°26' E 026°55'0 0.0
2017-Jun-08 16:29N 60°26' E 026°55'0 0.0
2017-Jun-08 15:59N 60°26' E 026°55'0 0.0
2017-Jun-08 15:29N 60°26' E 026°55'0 0.0
2017-Jun-08 14:59N 60°26' E 026°55'0 0.0
2017-Jun-08 14:29N 60°26' E 026°55'0 0.0
2017-Jun-08 13:29N 60°26' E 026°55'0 0.0
2017-Jun-08 12:59N 60°26' E 026°55'0 0.0
2017-Jun-08 12:29N 60°26' E 026°55'0 0.7
2017-Jun-08 12:00N 60°25' E 026°56'5 9.5
2017-Jun-08 11:30N 60°23' E 026°47'714.0
2017-Jun-08 11:00N 60°19' E 026°36'714.4
2017-Jun-08 10:31N 60°14' E 026°25'713.4
2017-Jun-08 10:00N 60°08' E 026°20'714.5
2017-Jun-08 09:30N 60°01' E 026°14'713.7
2017-Jun-08 09:00N 59°55' E 026°07'714.5
2017-Jun-08 08:31N 59°53' E 025°54'714.4
2017-Jun-08 08:00N 59°51' E 025°40'714.5
2017-Jun-08 07:30N 59°50' E 025°26'714.3
2017-Jun-08 07:01N 59°48' E 025°12'714.4
2017-Jun-08 06:30N 59°47' E 024°58'714.3
2017-Jun-08 06:00N 59°45' E 024°44'714.4
2017-Jun-08 05:30N 59°44' E 024°30'714.2
2017-Jun-08 05:00N 59°42' E 024°16'714.3
2017-Jun-08 04:30N 59°39' E 024°03'714.0
2017-Jun-08 04:00N 59°37' E 023°49'713.9
2017-Jun-08 03:30N 59°35' E 023°36'713.9
2017-Jun-08 03:00N 59°33' E 023°23'714.0
2017-Jun-08 02:30N 59°31' E 023°10'714.3
2017-Jun-08 02:00N 59°28' E 022°57'714.3
2017-Jun-08 01:31N 59°26' E 022°44'714.0
2017-Jun-08 01:00N 59°23' E 022°31'714.3
2017-Jun-08 00:31N 59°18' E 022°20'714.5
2017-Jun-08 00:01N 59°14' E 022°09'814.4
2017-Jun-07 23:27N 59°09' E 021°57'614.2
2017-Jun-07 23:01N 59°05' E 021°47'814.1
2017-Jun-07 22:26N 58°59' E 021°38'914.1
2017-Jun-07 21:46N 58°51' E 021°27'614.3
2017-Jun-07 21:22N 58°47' E 021°20'514.4
2017-Jun-07 21:01N 58°43' E 021°14'27014.2
2017-Jun-07 02:02N 55°35' E 015°16'114.3
2017-Jun-07 01:57N 55°34' E 015°14'614.0
2017-Jun-07 01:30N 55°31' E 015°05'714.0
2017-Jun-07 01:00N 55°28' E 014°54'714.3
2017-Jun-07 00:31N 55°25' E 014°43'714.0
2017-Jun-07 00:00N 55°20' E 014°34'714.2
2017-Jun-06 23:29N 55°14' E 014°25'714.2
2017-Jun-06 23:00N 55°10' E 014°16'814.0
2017-Jun-06 22:28N 55°10' E 014°03'613.9
2017-Jun-06 22:00N 55°11' E 013°52'2614.2
2017-Jun-06 20:10N 55°12' E 013°07'214.3
2017-Jun-06 20:00N 55°12' E 013°02'714.1
2017-Jun-06 19:30N 55°15' E 012°51'713.7
2017-Jun-06 19:00N 55°18' E 012°40'612.2
2017-Jun-06 18:30N 55°24' E 012°40'713.3
2017-Jun-06 18:00N 55°30' E 012°44'612.1
2017-Jun-06 17:30N 55°35' E 012°50'611.9
2017-Jun-06 17:00N 55°39' E 012°58'2 3.0
2017-Jun-06 16:16N 55°38' E 013°01'0 0.0
2017-Jun-06 15:55N 55°38' E 013°01'0 0.0
2017-Jun-06 15:28N 55°38' E 013°01'0 0.0
2017-Jun-06 14:55N 55°38' E 013°01'0 0.0
2017-Jun-06 13:55N 55°38' E 013°01'0 0.0
2017-Jun-06 13:22N 55°38' E 013°01'0 0.0
2017-Jun-06 12:43N 55°38' E 013°01'0 0.0
2017-Jun-06 12:25N 55°38' E 013°01'0 0.0
2017-Jun-06 11:49N 55°38' E 013°01'0 0.0
2017-Jun-06 11:28N 55°38' E 013°01'0 0.0
2017-Jun-06 10:55N 55°38' E 013°01'0 0.0
2017-Jun-06 09:46N 55°38' E 013°01'0 0.0
2017-Jun-06 09:10N 55°38' E 013°01'0 0.0
2017-Jun-06 08:55N 55°38' E 013°01'0 0.0
2017-Jun-06 08:25N 55°38' E 013°01'0 0.0
2017-Jun-06 07:20N 55°38' E 013°01'0 0.1
2017-Jun-06 07:00N 55°38' E 013°01'3 5.3
2017-Jun-06 06:30N 55°40' E 012°58'612.5
2017-Jun-06 06:00N 55°45' E 012°51'713.4
2017-Jun-06 05:30N 55°51' E 012°45'713.0
2017-Jun-06 05:00N 55°57' E 012°43'713.2
2017-Jun-06 04:30N 56°03' E 012°39'612.5
2017-Jun-06 04:00N 56°07' E 012°30'5 9.6
2017-Jun-06 03:30N 56°10' E 012°23'1311.0
2017-Jun-06 02:19N 56°17' E 012°04'4811.3
2017-Jun-05 22:05N 57°04' E 011°40'111.8
2017-Jun-05 21:59N 57°05' E 011°39'611.3
2017-Jun-05 21:29N 57°10' E 011°36'611.4
2017-Jun-05 21:00N 57°15' E 011°32'612.1
2017-Jun-05 20:30N 57°21' E 011°28'612.0
2017-Jun-05 20:00N 57°26' E 011°25'  

Dump ship's entire track history